Aérodrome :







RETROUVEZ-NOUS SUR...

 
LOGIN :

S'inscrire | Disclaimer

   EN    FR    IT 

 









Légende :    VFR   VFR Marginal   IFR   IFR Intensif   IFR Très Intensif
Visi : 
Plafond : 
>= 8 km
>= 3000ft
5 à 8 km
1000 à 3000 ft
1500m à 5 km
500 à 1000 ft
800 à 1500m
200 à 500 ft
< 800m
< 200 ft
Symboles :   Orages  Brouillard  Fortes neiges  Fortes précipitations  Vent > 20 kt






- Altitude de l'aérodrome : 98 ft
- Code IATA : JBQ


MDJB - El Higuero

DERNIER METAR :
  • 072200Z 12008KT 6000 TSRA FEW014CB BKN016 26/25 Q1015 CB/W/NW/N/NE

METARs EXPIRÉS :
  • 072100Z 36005KT 8000 -TSRA FEW018CB BKN018 30/25 Q1014 CB/W/N/NE
  • 072040Z 36008KT 7000 -SH FEW018CB SCT018 XX/XX Q1013 CB/W/N
  • 072000Z 18007KT 9999 FEW020CB SCT020 32/25 Q1013 CB/W

TAF TAF MDJB
Valide du 07 à 18h jusqu'au 08 à 18h UTC


071600Z 0718/0818 10008KT 9999 SCT020
BECMG 0800/0802 00000KT



MET'MAP, la Météo Aéronautique d'un coup d'oeil ! - Copyright ORBIFLY Décembre 2007 - Disclaimer

ORBIFLY MET'MAP TEAM :

Programmation & Développement : Alexandra Zaïnal
Sur une idée originale de : Baudouin d'Aumeries
Assistance à la programmation : Marc-Olivier Méhu
Soutien technique & logistique : Manuel Goepfert

Contact : metmap@orbifly.com




SOURCES & CREDITS :

   NOAA